createdAt,value
2017-11-16T00:00:28.115Z,22.45
2017-11-16T00:02:54.744Z,21.20
2017-11-16T00:05:21.291Z,23.38
2017-11-16T00:07:47.814Z,23.45
2017-11-16T00:10:14.799Z,18.20
2017-11-16T00:12:41.354Z,22.62
2017-11-16T00:15:07.910Z,22.42
2017-11-16T00:17:34.518Z,24.60
2017-11-16T00:20:01.146Z,23.35
2017-11-16T00:22:28.288Z,21.08
2017-11-16T00:24:54.886Z,19.23
2017-11-16T00:27:21.439Z,21.00
2017-11-16T00:29:47.994Z,23.83
2017-11-16T00:32:14.579Z,22.65
2017-11-16T00:34:41.135Z,24.85
2017-11-16T00:37:07.674Z,23.50
2017-11-16T00:39:34.276Z,24.40
2017-11-16T00:42:00.819Z,21.27
2017-11-16T00:44:27.367Z,24.70
2017-11-16T00:46:53.971Z,21.98
2017-11-16T00:49:20.504Z,22.75
2017-11-16T00:51:47.048Z,23.87
2017-11-16T00:54:13.693Z,25.00
2017-11-16T00:56:40.236Z,24.75
2017-11-16T00:59:06.787Z,22.40
2017-11-16T01:01:33.371Z,22.80
2017-11-16T01:04:00.272Z,20.50
2017-11-16T01:06:26.835Z,21.35
2017-11-16T01:08:53.437Z,22.23
2017-11-16T01:11:20.355Z,21.40
2017-11-16T01:13:46.879Z,21.45
2017-11-16T01:16:13.493Z,20.67
2017-11-16T01:18:40.040Z,21.08
2017-11-16T01:21:06.674Z,20.55
2017-11-16T01:23:33.647Z,21.87
2017-11-16T01:26:00.195Z,20.52
2017-11-16T01:28:26.743Z,22.48
2017-11-16T01:30:53.318Z,22.87
2017-11-16T01:33:19.870Z,22.77
2017-11-16T01:35:46.413Z,24.33
2017-11-16T01:38:13.034Z,20.75
2017-11-16T01:40:39.593Z,23.85
2017-11-16T01:43:06.150Z,20.90
2017-11-16T01:45:32.755Z,23.65
2017-11-16T01:47:59.683Z,20.60
2017-11-16T01:50:26.227Z,23.17
2017-11-16T01:52:52.876Z,24.23
2017-11-16T01:55:19.468Z,22.80
2017-11-16T01:57:46.391Z,22.17
2017-11-16T02:00:13.042Z,20.95
2017-11-16T02:02:39.682Z,24.42
2017-11-16T02:05:06.634Z,23.75
2017-11-16T02:07:33.278Z,23.10
2017-11-16T02:09:59.867Z,24.17
2017-11-16T02:12:26.834Z,22.65
2017-11-16T02:14:53.482Z,23.42
2017-11-16T02:17:20.055Z,19.45
2017-11-16T02:19:46.654Z,19.85
2017-11-16T02:22:13.479Z,21.90
2017-11-16T02:24:40.095Z,20.33
2017-11-16T02:27:06.713Z,18.02
2017-11-16T02:29:33.795Z,20.25
2017-11-16T02:32:00.402Z,19.55
2017-11-16T02:34:27.034Z,20.73
2017-11-16T02:36:53.665Z,20.77
2017-11-16T02:39:20.296Z,21.05
2017-11-16T02:41:46.924Z,21.12
2017-11-16T02:44:13.969Z,21.45
2017-11-16T02:46:40.986Z,21.00
2017-11-16T02:49:07.611Z,21.08
2017-11-16T02:51:34.274Z,20.27
2017-11-16T02:54:00.884Z,21.70
2017-11-16T02:56:27.869Z,21.30
2017-11-16T02:58:54.539Z,21.58
2017-11-16T03:01:21.178Z,22.70
2017-11-16T03:03:47.711Z,21.40
2017-11-16T03:06:14.366Z,22.17
2017-11-16T03:08:40.929Z,19.45
2017-11-16T03:11:07.544Z,21.98
2017-11-16T03:13:34.391Z,19.90
2017-11-16T03:16:01.461Z,19.62
2017-11-16T03:18:28.052Z,22.05
2017-11-16T03:20:54.747Z,20.40
2017-11-16T03:23:21.825Z,20.90
2017-11-16T03:25:48.447Z,22.70
2017-11-16T03:28:15.612Z,19.40
2017-11-16T03:30:42.560Z,22.50
2017-11-16T03:33:09.491Z,20.40
2017-11-16T03:35:36.095Z,25.48
2017-11-16T03:38:02.671Z,21.95
2017-11-16T03:40:29.254Z,23.52
2017-11-16T03:42:55.895Z,22.48
2017-11-16T03:45:22.462Z,23.35
2017-11-16T03:47:49.388Z,21.83
2017-11-16T03:50:16.051Z,22.80
2017-11-16T03:52:42.651Z,23.95
2017-11-16T03:55:09.258Z,20.20
2017-11-16T03:57:35.932Z,24.37
2017-11-16T04:00:02.905Z,22.05
2017-11-16T04:02:29.448Z,24.60
2017-11-16T04:04:56.159Z,23.12
2017-11-16T04:07:23.094Z,23.75
2017-11-16T04:09:49.725Z,21.92
2017-11-16T04:12:16.500Z,19.77
2017-11-16T04:14:43.091Z,21.25
2017-11-16T04:17:10.038Z,22.02
2017-11-16T04:19:37.032Z,20.37
2017-11-16T04:22:03.667Z,18.62
2017-11-16T04:24:30.260Z,21.15
2017-11-16T04:26:56.903Z,23.33
2017-11-16T04:29:23.515Z,19.85
2017-11-16T04:31:50.059Z,20.73
2017-11-16T04:34:16.723Z,20.35
2017-11-16T04:36:43.271Z,21.55
2017-11-16T04:39:09.883Z,20.35
2017-11-16T04:41:36.857Z,21.55
2017-11-16T04:44:03.408Z,20.88
2017-11-16T04:46:29.944Z,19.95
2017-11-16T04:48:56.555Z,18.80
2017-11-16T04:51:23.113Z,33.92
2017-11-16T04:53:49.683Z,20.37
2017-11-16T04:56:16.751Z,16.50
2017-11-16T04:58:43.315Z,20.23
2017-11-16T05:01:09.898Z,17.85
2017-11-16T05:03:36.504Z,20.33
2017-11-16T05:06:03.062Z,19.42
2017-11-16T05:08:29.663Z,20.90
2017-11-16T05:10:56.279Z,20.05
2017-11-16T05:13:23.243Z,22.20
2017-11-16T05:15:49.815Z,21.98
2017-11-16T05:18:16.411Z,23.38
2017-11-16T05:20:42.991Z,21.15
2017-11-16T05:23:09.567Z,21.65
2017-11-16T05:25:36.566Z,21.95
2017-11-16T05:28:03.111Z,18.52
2017-11-16T05:30:29.691Z,20.73
2017-11-16T05:32:56.485Z,22.83
2017-11-16T05:35:23.434Z,22.85
2017-11-16T05:37:50.363Z,20.30
2017-11-16T05:40:17.049Z,21.67
2017-11-16T05:42:43.611Z,19.58
2017-11-16T05:45:10.162Z,20.40
2017-11-16T05:47:36.927Z,23.27
2017-11-16T05:50:03.506Z,21.30
2017-11-16T05:52:30.084Z,24.87
2017-11-16T05:54:57.123Z,21.87
2017-11-16T05:57:23.719Z,23.55
2017-11-16T05:59:50.294Z,20.88
2017-11-16T06:02:16.923Z,24.17
2017-11-16T06:04:43.512Z,20.40
2017-11-16T06:07:10.460Z,23.23
2017-11-16T06:09:37.510Z,22.85
2017-11-16T06:12:04.476Z,23.12
2017-11-16T06:14:31.316Z,21.92
2017-11-16T06:16:58.088Z,18.02
2017-11-16T06:19:24.643Z,18.08
2017-11-16T06:21:51.200Z,22.15
2017-11-16T06:24:18.215Z,20.25
2017-11-16T06:26:44.804Z,22.45
2017-11-16T06:29:11.727Z,22.23
2017-11-16T06:31:38.331Z,21.70
2017-11-16T06:34:04.901Z,20.40
2017-11-16T06:36:31.447Z,27.70
2017-11-16T06:38:58.159Z,20.70
2017-11-16T06:41:25.116Z,21.70
2017-11-16T06:43:51.695Z,19.80
2017-11-16T06:46:25.263Z,25.08
2017-11-16T06:48:51.911Z,22.83
2017-11-16T06:51:18.469Z,24.90
2017-11-16T06:53:45.825Z,24.63
2017-11-16T06:56:12.767Z,26.40
2017-11-16T06:58:39.331Z,23.60
2017-11-16T07:01:06.319Z,23.30
2017-11-16T07:03:32.871Z,20.00
2017-11-16T07:05:59.423Z,21.70
2017-11-16T07:08:26.449Z,23.25
2017-11-16T07:10:53.383Z,20.75
2017-11-16T07:13:19.958Z,20.58
2017-11-16T07:15:47.228Z,22.50
2017-11-16T07:18:13.793Z,22.90
2017-11-16T07:20:40.391Z,20.88
2017-11-16T07:23:07.015Z,22.85
2017-11-16T07:25:33.612Z,18.95
2017-11-16T07:28:00.531Z,20.85
2017-11-16T07:30:27.155Z,22.00
2017-11-16T07:32:53.704Z,20.37
2017-11-16T07:35:20.255Z,18.60
2017-11-16T07:37:46.880Z,21.52
2017-11-16T07:40:13.487Z,20.08
2017-11-16T07:42:40.089Z,20.27
2017-11-16T07:45:06.743Z,19.45
2017-11-16T07:47:33.368Z,21.27
2017-11-16T07:49:59.975Z,18.73
2017-11-16T07:52:27.071Z,20.88
2017-11-16T07:54:53.683Z,20.05
2017-11-16T07:57:20.284Z,19.17
2017-11-16T07:59:46.988Z,19.08
2017-11-16T08:02:13.539Z,21.05
2017-11-16T08:04:40.474Z,18.98
2017-11-16T08:07:07.262Z,19.35
2017-11-16T08:09:34.190Z,19.45
2017-11-16T08:12:00.735Z,21.58
2017-11-16T08:14:27.351Z,23.42
2017-11-16T08:16:53.899Z,21.62
2017-11-16T08:19:20.497Z,20.83
2017-11-16T08:21:47.559Z,23.17
2017-11-16T08:24:14.488Z,21.45
2017-11-16T08:26:41.068Z,24.67
2017-11-16T08:29:08.039Z,22.08
2017-11-16T08:31:34.575Z,20.17
2017-11-16T08:34:02.069Z,19.58
2017-11-16T08:36:29.008Z,18.17
2017-11-16T08:38:56.037Z,21.85
2017-11-16T08:41:22.592Z,19.87
2017-11-16T08:43:49.243Z,20.95
2017-11-16T08:46:16.302Z,18.48
2017-11-16T08:48:42.901Z,20.85
2017-11-16T08:51:09.579Z,20.75
2017-11-16T08:53:36.199Z,21.33
2017-11-16T08:56:02.839Z,20.70
2017-11-16T08:58:29.525Z,20.20
2017-11-16T09:00:56.165Z,17.27
2017-11-16T09:03:22.848Z,17.15
2017-11-16T09:05:50.011Z,19.12
2017-11-16T09:08:17.004Z,16.10
2017-11-16T09:10:43.655Z,18.05
2017-11-16T09:13:10.339Z,19.02
2017-11-16T09:15:36.967Z,16.30
2017-11-16T09:18:03.584Z,15.15
2017-11-16T09:20:30.703Z,13.43
2017-11-16T09:22:57.307Z,17.65
2017-11-16T09:25:23.913Z,15.73
2017-11-16T09:27:50.716Z,15.02
2017-11-16T09:30:17.311Z,18.20
2017-11-16T09:32:43.934Z,16.55
2017-11-16T09:35:10.608Z,15.65
2017-11-16T09:37:37.161Z,15.52
2017-11-16T09:40:03.760Z,14.02
2017-11-16T09:42:30.811Z,17.20
2017-11-16T09:44:57.769Z,16.92
2017-11-16T09:47:24.697Z,15.25
2017-11-16T09:49:51.367Z,17.17
2017-11-16T09:52:18.555Z,17.77
2017-11-16T09:54:45.188Z,15.65
2017-11-16T09:57:12.181Z,17.65
2017-11-16T09:59:38.740Z,14.73
2017-11-16T10:02:05.289Z,16.80
2017-11-16T10:04:31.898Z,18.67
2017-11-16T10:06:58.436Z,16.58
2017-11-16T10:09:25.360Z,16.60
2017-11-16T10:11:51.975Z,15.20
2017-11-16T10:14:18.523Z,14.07
2017-11-16T10:16:45.072Z,14.57
2017-11-16T10:19:11.680Z,16.67
2017-11-16T10:21:38.598Z,16.98
2017-11-16T10:24:05.151Z,14.85
2017-11-16T10:26:31.743Z,15.65
2017-11-16T10:28:58.433Z,17.40
2017-11-16T10:31:24.995Z,14.32
2017-11-16T10:33:51.720Z,14.35
2017-11-16T10:36:18.292Z,15.15
2017-11-16T10:38:44.884Z,15.95
2017-11-16T10:41:11.492Z,15.05
2017-11-16T10:43:38.140Z,14.32
2017-11-16T10:46:04.700Z,14.55
2017-11-16T10:48:31.471Z,15.93
2017-11-16T10:50:58.445Z,15.05
2017-11-16T10:53:25.039Z,16.08
2017-11-16T10:55:51.715Z,15.38
2017-11-16T10:58:18.672Z,14.30
2017-11-16T11:00:45.613Z,14.73
2017-11-16T11:03:12.227Z,12.80
2017-11-16T11:05:38.771Z,13.80
2017-11-16T11:08:05.336Z,13.35
2017-11-16T11:10:31.991Z,14.25
2017-11-16T11:12:58.564Z,14.30
2017-11-16T11:15:25.512Z,14.48
2017-11-16T11:17:52.149Z,16.17
2017-11-16T11:20:18.700Z,13.52
2017-11-16T11:22:45.243Z,14.98
2017-11-16T11:25:11.883Z,17.27
2017-11-16T11:27:38.435Z,13.45
2017-11-16T11:30:05.045Z,14.23
2017-11-16T11:32:31.655Z,15.52
2017-11-16T11:34:58.232Z,14.57
2017-11-16T11:37:24.775Z,15.23
2017-11-16T11:39:51.415Z,18.02
2017-11-16T11:42:18.319Z,15.05
2017-11-16T11:44:44.875Z,17.60
2017-11-16T11:47:11.474Z,17.40
2017-11-16T11:49:38.068Z,16.25
2017-11-16T11:52:04.622Z,16.00
2017-11-16T11:54:31.236Z,16.65
2017-11-16T11:56:57.800Z,15.85
2017-11-16T11:59:24.377Z,16.00
2017-11-16T12:01:50.991Z,19.45
2017-11-16T12:04:17.588Z,17.90
2017-11-16T12:06:44.529Z,18.95
2017-11-16T12:09:11.171Z,17.50
2017-11-16T12:11:37.728Z,18.70
2017-11-16T12:14:04.295Z,17.30
2017-11-16T12:16:31.284Z,16.85
2017-11-16T12:18:57.835Z,17.48
2017-11-16T12:21:24.399Z,18.23
2017-11-16T12:23:50.987Z,16.75
2017-11-16T12:26:17.917Z,16.80
2017-11-16T12:28:44.562Z,16.12
2017-11-16T12:31:11.315Z,17.33
2017-11-16T12:33:37.903Z,16.12
2017-11-16T12:36:04.895Z,17.00
2017-11-16T12:38:31.578Z,14.77
2017-11-16T12:40:58.215Z,18.55
2017-11-16T12:43:24.837Z,20.60
2017-11-16T12:45:51.767Z,20.65
2017-11-16T12:48:18.740Z,21.17
2017-11-16T12:50:45.361Z,17.12
2017-11-16T12:53:12.332Z,19.55
2017-11-16T12:55:39.292Z,18.90
2017-11-16T12:58:05.948Z,20.33
2017-11-16T13:00:32.564Z,19.90
2017-11-16T13:02:59.114Z,19.10
2017-11-16T13:05:25.682Z,21.77
2017-11-16T13:07:53.266Z,19.65
2017-11-16T13:10:19.857Z,18.55
2017-11-16T13:12:46.422Z,21.83
2017-11-16T13:15:13.404Z,21.15
2017-11-16T13:17:40.007Z,20.37
2017-11-16T13:20:06.565Z,20.33
2017-11-16T13:22:33.175Z,22.23
2017-11-16T13:24:59.726Z,22.65
2017-11-16T13:27:26.283Z,21.27
2017-11-16T13:29:53.069Z,21.37
2017-11-16T13:32:19.616Z,22.75
2017-11-16T13:34:46.206Z,22.80
2017-11-16T13:37:12.831Z,24.33
2017-11-16T13:39:39.383Z,21.42
2017-11-16T13:42:06.328Z,22.55
2017-11-16T13:44:33.310Z,21.65
2017-11-16T13:46:59.867Z,27.08
2017-11-16T13:49:26.500Z,28.62
2017-11-16T13:51:53.244Z,23.50
2017-11-16T13:54:20.158Z,21.60
2017-11-16T13:56:46.775Z,22.65
2017-11-16T13:59:13.424Z,20.15
2017-11-16T14:01:39.979Z,22.58
2017-11-16T14:04:06.543Z,24.87
2017-11-16T14:06:33.272Z,17.37
2017-11-16T14:08:59.831Z,23.33
2017-11-16T14:11:26.396Z,25.30
2017-11-16T14:13:52.998Z,23.67
2017-11-16T14:16:19.555Z,24.27
2017-11-16T14:18:46.112Z,24.55
2017-11-16T14:21:12.709Z,21.30
2017-11-16T14:23:39.641Z,23.17
2017-11-16T14:26:06.208Z,22.55
2017-11-16T14:28:32.992Z,22.00
2017-11-16T14:30:59.962Z,21.33
2017-11-16T14:33:26.519Z,21.12
2017-11-16T14:35:53.133Z,17.95
2017-11-16T14:38:20.048Z,20.30
2017-11-16T14:40:46.609Z,17.52
2017-11-16T14:43:13.260Z,19.65
2017-11-16T14:45:39.906Z,16.20
2017-11-16T14:48:06.462Z,20.58
2017-11-16T14:50:33.105Z,19.58
2017-11-16T14:52:59.660Z,18.25
2017-11-16T14:55:26.216Z,18.85
2017-11-16T14:57:53.191Z,17.55
2017-11-16T15:00:20.133Z,18.62
2017-11-16T15:02:47.059Z,20.58
2017-11-16T15:05:13.653Z,17.45
2017-11-16T15:07:40.244Z,19.58
2017-11-16T15:10:06.853Z,17.85
2017-11-16T15:12:33.473Z,18.67
2017-11-16T15:15:00.406Z,15.90
2017-11-16T15:17:26.973Z,19.27
2017-11-16T15:19:53.748Z,19.12
2017-11-16T15:22:20.676Z,19.10
2017-11-16T15:24:47.252Z,15.35
2017-11-16T15:27:13.867Z,19.55
2017-11-16T15:29:40.449Z,19.62
2017-11-16T15:32:07.451Z,17.42
2017-11-16T15:34:34.067Z,18.17
2017-11-16T15:37:00.652Z,18.67
2017-11-16T15:39:27.194Z,19.80
2017-11-16T15:41:53.883Z,16.42
2017-11-16T15:44:20.415Z,23.87
2017-11-16T15:46:46.960Z,18.35
2017-11-16T15:49:13.671Z,18.23
2017-11-16T15:51:40.227Z,19.87
2017-11-16T15:54:06.779Z,18.62
2017-11-16T15:56:33.400Z,20.77
2017-11-16T15:58:59.960Z,18.33
2017-11-16T16:01:26.520Z,18.20
2017-11-16T16:03:53.595Z,19.20
2017-11-16T16:06:20.147Z,18.42
2017-11-16T16:08:47.074Z,17.67
2017-11-16T16:11:13.744Z,20.42
2017-11-16T16:13:40.293Z,18.02
2017-11-16T16:16:06.836Z,18.27
2017-11-16T16:18:33.480Z,19.25
2017-11-16T16:21:00.035Z,19.75
2017-11-16T16:23:26.592Z,19.23
2017-11-16T16:25:53.296Z,14.43
2017-11-16T16:28:19.856Z,22.65
2017-11-16T16:30:46.408Z,18.52
2017-11-16T16:33:13.079Z,20.05
2017-11-16T16:35:39.623Z,19.00
2017-11-16T16:38:06.174Z,19.50
2017-11-16T16:40:32.784Z,16.67
2017-11-16T16:42:59.331Z,18.80
2017-11-16T16:45:25.888Z,18.40
2017-11-16T16:47:52.476Z,17.10
2017-11-16T16:50:19.037Z,18.35
2017-11-16T16:52:45.635Z,18.35
2017-11-16T16:55:12.315Z,16.27
2017-11-16T16:57:39.154Z,18.20
2017-11-16T17:00:06.366Z,19.12
2017-11-16T17:02:33.071Z,18.52
2017-11-16T17:05:00.300Z,18.20
2017-11-16T17:07:26.848Z,16.55
2017-11-16T17:09:53.451Z,16.02
2017-11-16T17:12:20.056Z,20.90
2017-11-16T17:14:46.615Z,17.02
2017-11-16T17:17:13.243Z,17.12
2017-11-16T17:19:39.806Z,17.20
2017-11-16T17:22:06.357Z,17.37
2017-11-16T17:24:32.987Z,18.60
2017-11-16T17:26:59.576Z,17.50
2017-11-16T17:29:26.156Z,18.23
2017-11-16T17:31:53.144Z,17.77
2017-11-16T17:34:19.731Z,18.73
2017-11-16T17:36:46.288Z,15.95
2017-11-16T17:39:12.891Z,16.55
2017-11-16T17:41:39.465Z,16.60
2017-11-16T17:44:06.388Z,18.23
2017-11-16T17:46:33.083Z,19.40
2017-11-16T17:49:00.015Z,17.87
2017-11-16T17:51:26.571Z,16.37
2017-11-16T17:53:53.280Z,17.33
2017-11-16T17:56:19.832Z,18.17
2017-11-16T17:58:46.379Z,19.45
2017-11-16T18:01:13.076Z,19.70
2017-11-16T18:03:41.544Z,20.40
2017-11-16T18:06:08.532Z,20.40
2017-11-16T18:08:35.239Z,17.45
2017-11-16T18:11:01.792Z,18.15
2017-11-16T18:13:28.342Z,20.50
2017-11-16T18:15:55.095Z,20.23
2017-11-16T18:18:22.016Z,19.25
2017-11-16T18:20:48.577Z,18.95
2017-11-16T18:23:15.171Z,18.12
2017-11-16T18:25:42.095Z,14.82
2017-11-16T18:28:08.647Z,17.30
2017-11-16T18:30:35.280Z,16.65
2017-11-16T18:33:02.232Z,14.32
2017-11-16T18:35:29.163Z,16.55
2017-11-16T18:37:55.888Z,17.35
2017-11-16T18:40:22.460Z,15.05
2017-11-16T18:42:49.265Z,14.43
2017-11-16T18:45:16.395Z,16.95
2017-11-16T18:47:44.460Z,15.90
2017-11-16T18:50:11.047Z,18.35
2017-11-16T18:52:37.988Z,17.75
2017-11-16T18:55:04.904Z,19.70
2017-11-16T18:57:31.471Z,16.80
2017-11-16T18:59:58.094Z,18.35
2017-11-16T19:02:24.689Z,17.67
2017-11-16T19:04:51.247Z,17.65
2017-11-16T19:07:18.372Z,17.90
2017-11-16T19:09:45.313Z,14.52
2017-11-16T19:12:11.877Z,16.55
2017-11-16T19:14:38.587Z,14.07
2017-11-16T19:17:05.139Z,18.05
2017-11-16T19:19:31.849Z,21.05
2017-11-16T19:21:58.547Z,18.42
2017-11-16T19:24:25.544Z,18.23
2017-11-16T19:26:52.111Z,18.58
2017-11-16T19:29:19.045Z,19.58
2017-11-16T19:31:46.065Z,22.10
2017-11-16T19:34:12.627Z,18.85
2017-11-16T19:36:39.252Z,19.52
2017-11-16T19:39:05.845Z,15.30
2017-11-16T19:41:32.420Z,20.08
2017-11-16T19:43:59.055Z,17.87
2017-11-16T19:46:25.648Z,15.60
2017-11-16T19:48:52.217Z,16.20
2017-11-16T19:51:18.988Z,18.02
2017-11-16T19:53:45.941Z,25.25
2017-11-16T19:56:12.649Z,20.55
2017-11-16T19:58:39.593Z,17.90
2017-11-16T20:01:06.205Z,15.73
2017-11-16T20:03:32.792Z,16.45
2017-11-16T20:05:59.480Z,19.15
2017-11-16T20:08:26.073Z,17.65
2017-11-16T20:10:52.649Z,16.77
2017-11-16T20:13:19.280Z,17.27
2017-11-16T20:15:45.910Z,17.52
2017-11-16T20:18:12.479Z,17.25
2017-11-16T20:20:39.184Z,25.20
2017-11-16T20:23:05.747Z,25.48
2017-11-16T20:25:32.435Z,18.35
2017-11-16T20:28:00.179Z,21.45
2017-11-16T20:30:26.815Z,17.52
2017-11-16T20:32:53.775Z,18.55
2017-11-16T20:35:20.571Z,23.65
2017-11-16T20:38:00.013Z,20.15
2017-11-16T20:40:39.591Z,26.12
2017-11-16T20:43:24.610Z,18.33
2017-11-16T20:49:15.552Z,22.42
2017-11-16T20:52:03.160Z,19.37
2017-11-16T20:54:30.675Z,22.70
2017-11-16T20:56:57.303Z,23.70
2017-11-16T20:59:24.271Z,20.77
2017-11-16T21:01:51.893Z,22.52
2017-11-16T21:04:18.447Z,21.42
2017-11-16T21:06:45.084Z,19.92
2017-11-16T21:09:11.695Z,22.62
2017-11-16T21:11:38.307Z,22.00
2017-11-16T21:14:04.968Z,18.02
2017-11-16T21:16:32.633Z,18.42
2017-11-16T21:18:59.186Z,20.35
2017-11-16T21:21:26.323Z,18.60
2017-11-16T21:23:53.961Z,19.23
2017-11-16T21:26:20.521Z,21.45
2017-11-16T21:28:47.151Z,21.10
2017-11-16T21:31:14.812Z,19.30
2017-11-16T21:33:41.528Z,18.40
2017-11-16T21:36:09.033Z,19.37
2017-11-16T21:38:35.596Z,21.95
2017-11-16T21:41:02.571Z,19.92
2017-11-16T21:43:31.671Z,18.40
2017-11-16T21:45:58.227Z,20.35
2017-11-16T21:48:24.931Z,22.37
2017-11-16T21:50:51.658Z,19.52
2017-11-16T21:53:18.247Z,19.27
2017-11-16T21:55:44.843Z,19.40
2017-11-16T21:58:11.500Z,18.52
2017-11-16T22:00:38.077Z,19.62
2017-11-16T22:03:04.667Z,19.17
2017-11-16T22:05:31.320Z,18.83
2017-11-16T22:07:57.877Z,20.55
2017-11-16T22:10:24.452Z,18.65
2017-11-16T22:12:51.079Z,20.42
2017-11-16T22:15:17.648Z,20.52
2017-11-16T22:17:44.263Z,21.20
2017-11-16T22:20:10.981Z,20.23
2017-11-16T22:22:37.643Z,20.90
2017-11-16T22:25:04.192Z,18.58
2017-11-16T22:27:30.804Z,18.40
2017-11-16T22:29:57.381Z,16.02
2017-11-16T22:32:24.256Z,16.27
2017-11-16T22:34:50.867Z,14.35
2017-11-16T22:37:17.817Z,14.90
2017-11-16T22:39:51.514Z,12.88
2017-11-16T22:42:18.123Z,14.05
2017-11-16T22:44:45.082Z,14.57
2017-11-16T22:47:11.690Z,10.70
2017-11-16T22:49:38.291Z,14.23
2017-11-16T22:52:12.059Z,13.50
2017-11-16T22:54:38.635Z,12.68
2017-11-16T22:57:05.184Z,12.95
2017-11-16T22:59:32.187Z,13.30
2017-11-16T23:01:58.752Z,14.30
2017-11-16T23:04:25.348Z,13.02
2017-11-16T23:06:51.936Z,14.38
2017-11-16T23:09:18.843Z,14.98
2017-11-16T23:11:45.388Z,14.57
2017-11-16T23:14:12.007Z,14.87
2017-11-16T23:16:38.544Z,14.20
2017-11-16T23:19:05.083Z,11.90
2017-11-16T23:21:31.699Z,11.65
2017-11-16T23:23:58.618Z,15.13
2017-11-16T23:26:25.167Z,13.60
2017-11-16T23:28:51.786Z,16.12
2017-11-16T23:31:18.702Z,13.50
2017-11-16T23:33:45.280Z,14.40
2017-11-16T23:36:11.991Z,14.60
2017-11-16T23:38:38.544Z,12.65
2017-11-16T23:41:05.452Z,12.60
2017-11-16T23:43:32.066Z,14.73
2017-11-16T23:45:58.986Z,13.50
2017-11-16T23:48:25.554Z,13.73
2017-11-16T23:50:52.139Z,13.00
2017-11-16T23:53:19.057Z,14.20
2017-11-16T23:55:45.611Z,15.43
2017-11-16T23:58:12.238Z,15.23
